Wednesday, October 18, 2017, 3:32 AM EDT
Back to Local

KACK, Nantucket Memorial Airport

Location: Nantucket, MA, United States Lat: 41.25
Local Time: 3:32 AM EDT ( 7:32 GMT) Lon: -70.067
Time Zone: US/Eastern Elev: 49 ft

Show me the last for .
Show Decoded

2017-10-18 02:53 METAR KACK 180653Z AUTO 26008KT 10SM CLR 11/07 A3026 RMK AO2 SLP246 T01060067
                 TSNO $ =
2017-10-18 01:53 METAR KACK 180553Z AUTO 26006KT 10SM CLR 10/06 A3026 RMK AO2 SLP246 T01000061
                 10100 20056 56008 TSNO $ =
2017-10-18 00:53 METAR KACK 180453Z AUTO 26006KT 10SM CLR 09/06 A3027 RMK AO2 SLP248 T00940056
                 401280050 TSNO $ =
2017-10-17 23:53 METAR KACK 180353Z AUTO 26008KT 10SM CLR 09/06 A3027 RMK AO2 SLP251 T00940056
                 TSNO $ =
2017-10-17 22:53 METAR KACK 180253Z AUTO 26009KT 10SM CLR 09/06 A3028 RMK AO2 SLP254 T00890056
                 51004 TSNO $ =
2017-10-17 21:53 METAR KACK 180153Z AUTO 27006KT 10SM CLR 08/05 A3028 RMK AO2 SLP254 T00780050
                 TSNO $ =
2017-10-17 20:53 METAR KACK 180053Z AUTO 24006KT 10SM CLR 08/04 A3027 RMK AO2 SLP251 T00780039
                 TSNO $ =
2017-10-17 19:53 METAR KACK 172353Z 00000KT 10SM CLR 05/03 A3027 RMK AO2 SLP250 T00500028 10128
                 20050 52009 $ =
2017-10-17 18:53 METAR KACK 172253Z 00000KT 10SM CLR 07/03 A3026 RMK AO2 SLP247 T00720033 =
2017-10-17 17:53 METAR KACK 172153Z 00000KT 10SM CLR 10/02 A3025 RMK AO2 SLP244 T01000022 =
2017-10-17 16:53 METAR KACK 172053Z 32004KT 10SM CLR 12/02 A3024 RMK AO2 SLP241 T01170022 50000 =
2017-10-17 15:53 METAR KACK 171953Z 36007KT 10SM CLR 12/02 A3025 RMK AO2 SLP244 T01220022 =
2017-10-17 14:53 METAR KACK 171853Z 02008KT 10SM CLR 12/02 A3025 RMK AO2 SLP243 T01170022 =
2017-10-17 13:53 METAR KACK 171753Z 02009G17KT 10SM CLR 12/03 A3025 RMK AO2 SLP241 T01220028
                 10128 20094 58004 =
2017-10-17 12:53 METAR KACK 171653Z 02011G18KT 10SM CLR 12/02 A3026 RMK AO2 SLP246 T01220022 =
2017-10-17 11:53 METAR KACK 171553Z 03012G20KT 10SM CLR 12/02 A3026 RMK AO2 SLP248 T01220022 =
2017-10-17 10:53 METAR KACK 171453Z 36016KT 10SM SCT041 12/02 A3026 RMK AO2 SLP245 T01170022
                 51012 =
2017-10-17 09:53 METAR KACK 171353Z 01019G26KT 10SM CLR 11/02 A3025 RMK AO2 PK WND 36026/1348
                 SLP244 T01110017 =
2017-10-17 08:53 METAR KACK 171253Z 36015KT 10SM FEW042 11/02 A3025 RMK AO2 PK WND 02026/1205
                 SLP242 T01060017 =
2017-10-17 07:53 METAR KACK 171153Z 01017KT 10SM CLR 09/01 A3022 RMK AO2 SLP234 T00940011 10106
                 20089 53022 =
2017-10-17 06:53 METAR KACK 171053Z 01013KT 10SM OVC043 09/02 A3020 RMK AO2 SLP226 T00940022 =
2017-10-17 05:53 METAR KACK 170953Z 01016KT 10SM BKN039 OVC047 10/04 A3017 RMK AO2 SLP217
                 T01000039 =
2017-10-17 04:53 METAR KACK 170853Z AUTO 36014KT 10SM OVC040 10/04 A3016 RMK AO2 SLP212 T01000044
                 53017 TSNO =
2017-10-17 03:53 METAR KACK 170753Z AUTO 01017G22KT 10SM BKN035 OVC045 10/05 A3013 RMK AO2 SLP203
                 T01000050 TSNO =

Support USWX by starting your Amazon purchase here.